Hendley, Nebraska
Current Conditions -  °F | °C
As of 9:53 PM on Saturday 20 Dec 2014 (Local Time) from KMCK Reporting Station
Few Clouds Few Clouds  
Wind Chill: 25°   Ceiling: Unl
Heat Index: 30°   Visibility: 10mi
Dew Point: 26°   Wind: 5mph
Humidity: 85%   Direction: 250°WSW
Pressure: 29.93"   Gusts: NA
Location:  40.13°N, 99.97°W
Report Text: KMCK 210353Z AUTO 25004KT 10SM FEW120 M01/M03 A2993 RMK AO2 SLP160 T10111033
Loading
Personal Weather Stations






























Interactive Weather Map New forecast layout! Learn more

10-Day Weather Forecast

Advertisements
Track Severe Weather on mobile